createdAt,value
2022-09-11T00:00:47.580Z,45.00
2022-09-11T00:01:47.588Z,50.40
2022-09-11T00:02:47.526Z,44.00
2022-09-11T00:03:47.455Z,48.50
2022-09-11T00:04:47.415Z,50.10
2022-09-11T00:05:47.377Z,45.30
2022-09-11T00:06:47.354Z,93.50
2022-09-11T00:07:47.305Z,57.10
2022-09-11T00:08:47.269Z,48.80
2022-09-11T00:09:47.223Z,49.40
2022-09-11T00:10:47.194Z,46.00
2022-09-11T00:11:47.145Z,45.10
2022-09-11T00:12:47.117Z,51.00
2022-09-11T00:13:47.066Z,70.00
2022-09-11T00:14:47.030Z,78.30
2022-09-11T00:15:47.033Z,62.80
2022-09-11T00:16:46.955Z,65.30
2022-09-11T00:17:46.926Z,67.70
2022-09-11T00:18:46.880Z,61.90
2022-09-11T00:19:46.838Z,63.70
2022-09-11T00:20:46.800Z,60.00
2022-09-11T00:21:46.762Z,61.50
2022-09-11T00:22:46.724Z,55.10
2022-09-11T00:23:46.695Z,47.70
2022-09-11T00:24:46.645Z,45.00
2022-09-11T00:25:46.617Z,39.60
2022-09-11T00:26:46.567Z,46.40
2022-09-11T00:27:46.530Z,48.60
2022-09-11T00:28:46.493Z,46.40
2022-09-11T00:29:46.464Z,42.30
2022-09-11T00:30:46.413Z,47.10
2022-09-11T00:31:46.382Z,49.10
2022-09-11T00:32:46.336Z,53.00
2022-09-11T00:33:46.295Z,53.60
2022-09-11T00:34:46.258Z,53.30
2022-09-11T00:35:46.229Z,49.70
2022-09-11T00:36:46.184Z,48.40
2022-09-11T00:37:46.140Z,49.20
2022-09-11T00:38:46.104Z,54.60
2022-09-11T00:39:46.115Z,47.10
2022-09-11T00:40:46.030Z,50.00
2022-09-11T00:41:46.001Z,49.40
2022-09-11T00:42:45.949Z,53.70
2022-09-11T00:43:45.927Z,52.50
2022-09-11T00:44:45.872Z,58.60
2022-09-11T00:45:45.842Z,59.50
2022-09-11T00:46:45.795Z,48.40
2022-09-11T00:47:45.770Z,45.60
2022-09-11T00:48:45.723Z,60.90
2022-09-11T00:49:45.681Z,50.00
2022-09-11T00:50:45.648Z,50.60
2022-09-11T00:51:45.627Z,51.00
2022-09-11T00:52:47.374Z,51.10
2022-09-11T00:53:45.536Z,58.60
2022-09-11T00:54:45.487Z,53.30
2022-09-11T00:55:45.445Z,52.40
2022-09-11T00:56:45.409Z,50.00
2022-09-11T00:57:45.370Z,46.90
2022-09-11T00:58:45.333Z,42.90
2022-09-11T00:59:45.306Z,43.50
2022-09-11T01:00:45.342Z,45.90
2022-09-11T01:01:45.283Z,48.00
2022-09-11T01:02:45.184Z,41.90
2022-09-11T01:03:45.140Z,46.60
2022-09-11T01:04:45.103Z,43.70
2022-09-11T01:05:45.073Z,51.30
2022-09-11T01:06:45.031Z,49.90
2022-09-11T01:07:44.986Z,54.10
2022-09-11T01:08:44.950Z,43.20
2022-09-11T01:09:44.947Z,41.70
2022-09-11T01:10:44.873Z,45.90
2022-09-11T01:11:44.849Z,49.80
2022-09-11T01:12:44.797Z,50.70
2022-09-11T01:13:44.771Z,43.60
2022-09-11T01:14:44.719Z,47.40
2022-09-11T01:15:44.683Z,43.90
2022-09-11T01:16:44.655Z,40.10
2022-09-11T01:17:44.619Z,41.50
2022-09-11T01:18:44.569Z,40.70
2022-09-11T01:19:44.528Z,45.20
2022-09-11T01:20:44.494Z,46.00
2022-09-11T01:21:44.454Z,46.80
2022-09-11T01:22:44.426Z,51.10
2022-09-11T01:23:44.400Z,51.20
2022-09-11T01:24:44.356Z,52.10
2022-09-11T01:25:44.299Z,49.30
2022-09-11T01:26:44.263Z,51.80
2022-09-11T01:27:44.230Z,49.10
2022-09-11T01:28:44.214Z,52.90
2022-09-11T01:29:44.147Z,62.50
2022-09-11T01:30:44.110Z,55.10
2022-09-11T01:31:44.110Z,54.10
2022-09-11T01:32:44.040Z,51.20
2022-09-11T01:33:44.035Z,53.90
2022-09-11T01:34:43.956Z,57.50
2022-09-11T01:35:43.920Z,56.00
2022-09-11T01:36:43.882Z,54.70
2022-09-11T01:37:43.843Z,53.90
2022-09-11T01:38:43.807Z,52.00
2022-09-11T01:39:43.808Z,50.90
2022-09-11T01:40:43.730Z,55.70
2022-09-11T01:41:43.691Z,57.80
2022-09-11T01:42:43.652Z,49.50
2022-09-11T01:43:43.741Z,52.30
2022-09-11T01:44:43.578Z,53.80
2022-09-11T01:45:43.557Z,61.50
2022-09-11T01:46:43.502Z,70.20
2022-09-11T01:47:43.464Z,73.70
2022-09-11T01:48:43.424Z,67.20
2022-09-11T01:49:43.401Z,77.50
2022-09-11T01:50:43.348Z,79.20
2022-09-11T01:51:52.537Z,81.20
2022-09-11T01:52:43.275Z,90.30
2022-09-11T01:53:45.886Z,93.30
2022-09-11T01:54:43.205Z,88.60
2022-09-11T01:55:43.165Z,94.90
2022-09-11T01:56:43.122Z,97.30
2022-09-11T01:57:43.086Z,92.50
2022-09-11T01:58:43.043Z,102.00
2022-09-11T01:59:43.020Z,101.90
2022-09-11T02:00:43.009Z,95.20
2022-09-11T02:01:42.961Z,96.30
2022-09-11T02:02:42.893Z,107.10
2022-09-11T02:03:42.994Z,106.50
2022-09-11T02:04:42.826Z,106.90
2022-09-11T02:05:42.781Z,101.50
2022-09-11T02:06:42.739Z,104.50
2022-09-11T02:07:42.705Z,99.20
2022-09-11T02:08:42.664Z,101.40
2022-09-11T02:09:42.627Z,101.80
2022-09-11T02:10:42.600Z,97.50
2022-09-11T02:11:42.551Z,95.40
2022-09-11T02:12:42.514Z,91.40
2022-09-11T02:13:42.565Z,97.60
2022-09-11T02:14:42.438Z,95.10
2022-09-11T02:15:42.412Z,96.40
2022-09-11T02:16:42.359Z,98.30
2022-09-11T02:17:42.325Z,102.40
2022-09-11T02:18:42.283Z,97.50
2022-09-11T02:19:42.246Z,102.10
2022-09-11T02:20:42.210Z,113.70
2022-09-11T02:21:42.185Z,104.00
2022-09-11T02:22:42.132Z,113.30
2022-09-11T02:23:42.140Z,108.40
2022-09-11T02:24:42.054Z,109.10
2022-09-11T02:25:42.026Z,108.70
2022-09-11T02:26:41.980Z,115.90
2022-09-11T02:27:41.955Z,129.70
2022-09-11T02:28:41.907Z,148.00
2022-09-11T02:29:41.866Z,132.60
2022-09-11T02:30:41.829Z,130.40
2022-09-11T02:31:41.811Z,146.60
2022-09-11T02:32:41.752Z,133.30
2022-09-11T02:33:41.822Z,142.60
2022-09-11T02:34:41.677Z,149.20
2022-09-11T02:35:41.640Z,142.30
2022-09-11T02:36:41.601Z,141.30
2022-09-11T02:37:41.572Z,153.60
2022-09-11T02:38:41.524Z,152.80
2022-09-11T02:39:41.548Z,150.70
2022-09-11T02:40:41.453Z,168.50
2022-09-11T02:41:41.415Z,177.80
2022-09-11T02:42:41.373Z,166.20
2022-09-11T02:43:41.351Z,169.00
2022-09-11T02:44:41.302Z,180.70
2022-09-11T02:45:41.325Z,180.40
2022-09-11T02:46:41.222Z,174.90
2022-09-11T02:47:41.185Z,166.50
2022-09-11T02:48:41.156Z,183.70
2022-09-11T02:49:41.108Z,166.50
2022-09-11T02:50:41.071Z,169.70
2022-09-11T02:51:41.032Z,183.80
2022-09-11T02:52:40.994Z,178.50
2022-09-11T02:53:40.991Z,200.90
2022-09-11T02:54:40.917Z,176.80
2022-09-11T02:55:40.882Z,192.70
2022-09-11T02:56:40.841Z,189.90
2022-09-11T02:57:40.805Z,174.90
2022-09-11T02:58:40.766Z,181.30
2022-09-11T02:59:40.741Z,190.40
2022-09-11T03:00:40.742Z,179.30
2022-09-11T03:01:40.680Z,177.70
2022-09-11T03:02:40.615Z,181.10
2022-09-11T03:03:40.618Z,180.50
2022-09-11T03:04:40.549Z,178.60
2022-09-11T03:05:40.501Z,188.90
2022-09-11T03:06:40.463Z,192.30
2022-09-11T03:07:40.426Z,200.00
2022-09-11T03:08:40.386Z,200.90
2022-09-11T03:09:40.348Z,197.20
2022-09-11T03:10:40.324Z,206.20
2022-09-11T03:11:40.281Z,202.90
2022-09-11T03:12:40.236Z,201.90
2022-09-11T03:13:40.254Z,195.10
2022-09-11T03:14:40.163Z,204.20
2022-09-11T03:15:40.122Z,221.60
2022-09-11T03:16:40.116Z,195.80
2022-09-11T03:17:40.056Z,211.40
2022-09-11T03:18:40.008Z,210.70
2022-09-11T03:19:39.970Z,219.40
2022-09-11T03:20:39.932Z,215.80
2022-09-11T03:21:39.899Z,210.80
2022-09-11T03:22:39.856Z,216.50
2022-09-11T03:23:39.889Z,216.90
2022-09-11T03:24:39.779Z,230.20
2022-09-11T03:25:39.742Z,221.10
2022-09-11T03:26:39.703Z,206.90
2022-09-11T03:27:39.668Z,209.80
2022-09-11T03:28:39.641Z,206.90
2022-09-11T03:29:39.591Z,217.90
2022-09-11T03:30:39.553Z,210.10
2022-09-11T03:31:39.681Z,224.00
2022-09-11T03:32:39.479Z,212.10
2022-09-11T03:33:39.484Z,202.20
2022-09-11T03:34:39.409Z,204.80
2022-09-11T03:35:39.365Z,210.30
2022-09-11T03:36:39.325Z,202.40
2022-09-11T03:37:39.286Z,193.60
2022-09-11T03:38:39.248Z,195.00
2022-09-11T03:39:39.237Z,194.60
2022-09-11T03:40:39.185Z,194.10
2022-09-11T03:41:39.137Z,194.20
2022-09-11T03:42:39.096Z,199.20
2022-09-11T03:43:39.175Z,189.70
2022-09-11T03:44:39.021Z,199.00
2022-09-11T03:45:39.020Z,195.20
2022-09-11T03:46:38.961Z,191.80
2022-09-11T03:47:38.908Z,196.10
2022-09-11T03:48:38.872Z,195.60
2022-09-11T03:49:38.828Z,205.60
2022-09-11T03:50:38.794Z,188.00
2022-09-11T03:51:38.760Z,188.60
2022-09-11T03:52:38.731Z,193.50
2022-09-11T03:53:38.722Z,174.30
2022-09-11T03:54:38.641Z,182.80
2022-09-11T03:55:38.608Z,186.50
2022-09-11T03:56:38.565Z,201.30
2022-09-11T03:57:38.526Z,181.40
2022-09-11T03:58:38.502Z,187.50
2022-09-11T03:59:38.454Z,180.80
2022-09-11T04:00:38.453Z,205.60
2022-09-11T04:01:38.418Z,223.40
2022-09-11T04:02:38.335Z,218.00
2022-09-11T04:03:38.363Z,219.60
2022-09-11T04:04:38.271Z,224.50
2022-09-11T04:05:38.223Z,229.40
2022-09-11T04:06:38.186Z,218.10
2022-09-11T04:07:38.148Z,236.90
2022-09-11T04:08:38.110Z,227.20
2022-09-11T04:09:38.073Z,224.90
2022-09-11T04:10:38.047Z,228.30
2022-09-11T04:11:38.008Z,226.10
2022-09-11T04:12:37.958Z,236.80
2022-09-11T04:13:37.920Z,224.60
2022-09-11T04:14:37.881Z,227.10
2022-09-11T04:15:37.848Z,223.20
2022-09-11T04:16:37.833Z,241.50
2022-09-11T04:17:37.783Z,216.60
2022-09-11T04:18:37.728Z,221.80
2022-09-11T04:19:37.693Z,229.10
2022-09-11T04:20:37.652Z,240.10
2022-09-11T04:21:37.613Z,227.20
2022-09-11T04:22:37.577Z,229.50
2022-09-11T04:23:37.553Z,239.80
2022-09-11T04:24:37.502Z,233.50
2022-09-11T04:25:37.462Z,237.20
2022-09-11T04:26:37.427Z,254.00
2022-09-11T04:27:37.387Z,236.20
2022-09-11T04:28:37.351Z,265.00
2022-09-11T04:29:37.323Z,241.60
2022-09-11T04:30:37.272Z,256.90
2022-09-11T04:31:37.243Z,238.90
2022-09-11T04:32:37.198Z,254.60
2022-09-11T04:33:37.158Z,270.10
2022-09-11T04:34:37.127Z,273.40
2022-09-11T04:35:37.101Z,263.00
2022-09-11T04:36:37.043Z,247.70
2022-09-11T04:37:37.007Z,252.20
2022-09-11T04:38:36.968Z,258.10
2022-09-11T04:39:36.968Z,271.30
2022-09-11T04:40:36.893Z,275.10
2022-09-11T04:41:36.865Z,273.80
2022-09-11T04:42:36.821Z,263.00
2022-09-11T04:43:36.783Z,270.80
2022-09-11T04:44:36.747Z,268.30
2022-09-11T04:45:36.774Z,285.30
2022-09-11T04:46:36.664Z,284.90
2022-09-11T04:47:36.640Z,261.80
2022-09-11T04:48:36.588Z,273.70
2022-09-11T04:49:36.550Z,282.20
2022-09-11T04:50:36.511Z,306.10
2022-09-11T04:51:36.488Z,300.40
2022-09-11T04:52:36.440Z,269.80
2022-09-11T04:53:36.397Z,272.60
2022-09-11T04:54:36.360Z,281.60
2022-09-11T04:55:36.326Z,309.80
2022-09-11T04:56:36.285Z,293.80
2022-09-11T04:57:36.260Z,291.50
2022-09-11T04:58:36.207Z,279.10
2022-09-11T04:59:36.193Z,275.80
2022-09-11T05:00:36.136Z,258.00
2022-09-11T05:01:36.095Z,271.10
2022-09-11T05:02:36.056Z,244.00
2022-09-11T05:03:36.018Z,269.30
2022-09-11T05:04:35.981Z,248.90
2022-09-11T05:05:35.956Z,265.00
2022-09-11T05:06:35.909Z,263.60
2022-09-11T05:07:35.866Z,249.80
2022-09-11T05:08:35.830Z,257.40
2022-09-11T05:09:35.789Z,253.80
2022-09-11T05:10:35.753Z,255.50
2022-09-11T05:11:35.726Z,258.50
2022-09-11T05:12:35.676Z,250.80
2022-09-11T05:13:36.594Z,264.00
2022-09-11T05:14:35.600Z,254.20
2022-09-11T05:15:35.565Z,291.00
2022-09-11T05:16:35.555Z,258.80
2022-09-11T05:17:35.496Z,264.80
2022-09-11T05:18:35.451Z,275.20
2022-09-11T05:19:35.411Z,266.30
2022-09-11T05:20:35.373Z,252.80
2022-09-11T05:21:35.336Z,267.20
2022-09-11T05:22:35.305Z,267.30
2022-09-11T05:23:35.262Z,256.60
2022-09-11T05:24:35.222Z,273.60
2022-09-11T05:25:35.181Z,259.80
2022-09-11T05:26:35.146Z,276.10
2022-09-11T05:27:35.106Z,266.60
2022-09-11T05:28:35.081Z,258.30
2022-09-11T05:29:35.030Z,268.00
2022-09-11T05:30:34.992Z,245.70
2022-09-11T05:31:34.997Z,256.20
2022-09-11T05:32:34.917Z,258.10
2022-09-11T05:33:34.882Z,272.90
2022-09-11T05:34:34.853Z,249.20
2022-09-11T05:35:34.803Z,275.20
2022-09-11T05:36:34.762Z,272.70
2022-09-11T05:37:34.760Z,287.90
2022-09-11T05:38:34.692Z,278.50
2022-09-11T05:39:34.731Z,271.10
2022-09-11T05:40:34.614Z,282.10
2022-09-11T05:41:34.574Z,279.90
2022-09-11T05:42:34.537Z,270.20
2022-09-11T05:43:34.499Z,273.90
2022-09-11T05:44:34.465Z,266.90
2022-09-11T05:45:34.459Z,283.30
2022-09-11T05:46:34.386Z,288.20
2022-09-11T05:47:34.346Z,281.20
2022-09-11T05:48:34.310Z,288.80
2022-09-11T05:49:34.273Z,287.00
2022-09-11T05:50:34.264Z,269.10
2022-09-11T05:51:34.204Z,272.00
2022-09-11T05:52:34.157Z,288.30
2022-09-11T05:53:34.241Z,272.30
2022-09-11T05:54:34.083Z,286.20
2022-09-11T05:55:34.042Z,275.50
2022-09-11T05:56:34.017Z,287.50
2022-09-11T05:57:33.967Z,272.10
2022-09-11T05:58:33.931Z,275.30
2022-09-11T05:59:33.904Z,293.20
2022-09-11T06:00:33.856Z,278.70
2022-09-11T06:01:33.878Z,299.60
2022-09-11T06:02:33.781Z,270.10
2022-09-11T06:03:33.847Z,270.20
2022-09-11T06:04:33.715Z,294.60
2022-09-11T06:05:33.673Z,296.40
2022-09-11T06:06:33.627Z,305.80
2022-09-11T06:07:33.589Z,325.90
2022-09-11T06:08:33.556Z,317.70
2022-09-11T06:09:33.518Z,311.00
2022-09-11T06:10:33.488Z,326.80
2022-09-11T06:11:33.437Z,301.00
2022-09-11T06:12:33.402Z,306.40
2022-09-11T06:13:33.402Z,302.30
2022-09-11T06:14:33.326Z,312.00
2022-09-11T06:15:46.194Z,312.80
2022-09-11T06:16:33.298Z,315.00
2022-09-11T06:17:33.214Z,292.30
2022-09-11T06:18:33.173Z,306.90
2022-09-11T06:19:33.136Z,303.10
2022-09-11T06:20:33.101Z,309.20
2022-09-11T06:21:33.059Z,270.80
2022-09-11T06:22:33.036Z,251.70
2022-09-11T06:23:32.989Z,230.40
2022-09-11T06:24:32.947Z,233.60
2022-09-11T06:25:32.907Z,214.30
2022-09-11T06:26:32.873Z,214.70
2022-09-11T06:27:32.833Z,211.50
2022-09-11T06:28:32.806Z,205.60
2022-09-11T06:29:32.757Z,216.70
2022-09-11T06:30:32.733Z,220.70
2022-09-11T06:31:32.680Z,215.10
2022-09-11T06:32:32.660Z,207.50
2022-09-11T06:33:32.605Z,214.90
2022-09-11T06:34:32.569Z,222.70
2022-09-11T06:35:32.536Z,227.50
2022-09-11T06:36:32.495Z,242.60
2022-09-11T06:37:32.456Z,226.10
2022-09-11T06:38:32.433Z,220.00
2022-09-11T06:39:32.382Z,229.90
2022-09-11T06:40:32.342Z,241.10
2022-09-11T06:41:32.302Z,220.80
2022-09-11T06:42:32.267Z,252.70
2022-09-11T06:43:32.228Z,237.60
2022-09-11T06:44:32.202Z,243.50
2022-09-11T06:45:32.187Z,257.30
2022-09-11T06:46:32.118Z,254.30
2022-09-11T06:47:32.082Z,249.30
2022-09-11T06:48:32.041Z,258.70
2022-09-11T06:49:32.013Z,258.90
2022-09-11T06:50:35.155Z,262.90
2022-09-11T06:51:31.925Z,268.30
2022-09-11T06:52:31.888Z,283.40
2022-09-11T06:53:31.850Z,266.30
2022-09-11T06:54:31.813Z,271.80
2022-09-11T06:55:31.789Z,270.20
2022-09-11T06:56:31.739Z,263.90
2022-09-11T06:57:31.699Z,259.70
2022-09-11T06:58:31.665Z,275.50
2022-09-11T06:59:31.630Z,268.50
2022-09-11T07:00:31.586Z,266.00
2022-09-11T07:01:31.717Z,272.60
2022-09-11T07:02:31.512Z,284.40
2022-09-11T07:03:31.473Z,269.50
2022-09-11T07:04:31.435Z,307.00
2022-09-11T07:05:31.399Z,272.30
2022-09-11T07:06:31.376Z,275.30
2022-09-11T07:07:31.331Z,279.70
2022-09-11T07:08:31.289Z,281.60
2022-09-11T07:09:31.428Z,288.10
2022-09-11T07:10:31.208Z,284.80
2022-09-11T07:11:31.174Z,292.00
2022-09-11T07:12:31.134Z,277.20
2022-09-11T07:13:34.273Z,296.40
2022-09-11T07:14:31.060Z,286.20
2022-09-11T07:15:31.034Z,280.70
2022-09-11T07:16:31.045Z,285.80
2022-09-11T07:17:30.947Z,296.80
2022-09-11T07:18:30.908Z,303.80
2022-09-11T07:19:30.870Z,321.40
2022-09-11T07:20:30.836Z,283.10
2022-09-11T07:21:30.807Z,307.00
2022-09-11T07:22:30.762Z,293.00
2022-09-11T07:23:30.759Z,312.10
2022-09-11T07:24:30.685Z,292.80
2022-09-11T07:25:30.645Z,318.90
2022-09-11T07:26:30.611Z,297.60
2022-09-11T07:27:30.583Z,315.20
2022-09-11T07:28:30.535Z,304.70
2022-09-11T07:29:30.493Z,291.70
2022-09-11T07:30:30.482Z,300.50
2022-09-11T07:31:30.419Z,295.80
2022-09-11T07:32:30.383Z,294.60
2022-09-11T07:33:30.356Z,299.10
2022-09-11T07:34:30.319Z,277.30
2022-09-11T07:35:30.268Z,292.50
2022-09-11T07:36:30.234Z,304.70
2022-09-11T07:37:30.192Z,284.30
2022-09-11T07:38:30.163Z,289.40
2022-09-11T07:39:30.131Z,286.50
2022-09-11T07:40:30.083Z,281.00
2022-09-11T07:41:30.044Z,287.80
2022-09-11T07:42:30.008Z,293.70
2022-09-11T07:43:29.969Z,314.20
2022-09-11T07:44:29.938Z,245.90
2022-09-11T07:45:29.950Z,259.00
2022-09-11T07:46:29.860Z,243.80
2022-09-11T07:47:29.830Z,254.60
2022-09-11T07:48:29.784Z,238.40
2022-09-11T07:49:29.742Z,237.30
2022-09-11T07:50:29.706Z,225.70
2022-09-11T07:51:29.668Z,229.50
2022-09-11T07:52:36.726Z,218.50
2022-09-11T07:53:29.593Z,211.50
2022-09-11T07:54:29.554Z,207.70
2022-09-11T07:55:29.516Z,196.80
2022-09-11T07:56:29.481Z,205.30
2022-09-11T07:57:29.440Z,208.10
2022-09-11T07:58:29.418Z,190.70
2022-09-11T07:59:29.368Z,189.00
2022-09-11T08:00:30.551Z,186.90
2022-09-11T08:01:29.314Z,180.50
2022-09-11T08:02:29.281Z,177.60
2022-09-11T08:03:29.215Z,189.40
2022-09-11T08:04:29.356Z,181.60
2022-09-11T08:05:29.139Z,173.90
2022-09-11T08:06:29.103Z,167.00
2022-09-11T08:07:29.067Z,165.60
2022-09-11T08:08:29.061Z,157.30
2022-09-11T08:09:28.990Z,168.30
2022-09-11T08:10:28.985Z,173.60
2022-09-11T08:11:28.916Z,176.00
2022-09-11T08:12:28.880Z,187.90
2022-09-11T08:13:28.839Z,168.30
2022-09-11T08:14:28.808Z,151.50
2022-09-11T08:15:28.780Z,149.90
2022-09-11T08:16:28.738Z,131.30
2022-09-11T08:17:28.690Z,124.40
2022-09-11T08:18:28.659Z,128.80
2022-09-11T08:19:28.618Z,121.80
2022-09-11T08:20:28.581Z,110.80
2022-09-11T08:21:28.554Z,102.70
2022-09-11T08:22:28.505Z,101.20
2022-09-11T08:23:28.467Z,94.60
2022-09-11T08:24:28.431Z,87.10
2022-09-11T08:25:28.394Z,86.00
2022-09-11T08:26:28.354Z,86.10
2022-09-11T08:27:28.330Z,82.30
2022-09-11T08:28:28.286Z,84.80
2022-09-11T08:29:28.242Z,86.40
2022-09-11T08:30:28.210Z,85.50
2022-09-11T08:31:28.209Z,86.90
2022-09-11T08:32:28.144Z,90.90
2022-09-11T08:33:28.096Z,90.30
2022-09-11T08:34:28.058Z,88.60
2022-09-11T08:35:28.018Z,92.70
2022-09-11T08:36:27.983Z,88.20
2022-09-11T08:37:27.942Z,90.50
2022-09-11T08:38:27.924Z,96.20
2022-09-11T08:39:27.869Z,92.40
2022-09-11T08:40:27.832Z,95.00
2022-09-11T08:41:27.795Z,97.60
2022-09-11T08:42:27.758Z,91.20
2022-09-11T08:43:27.721Z,94.00
2022-09-11T08:44:27.698Z,94.20
2022-09-11T08:45:27.673Z,97.90
2022-09-11T08:46:27.609Z,98.20
2022-09-11T08:47:27.573Z,91.50
2022-09-11T08:48:27.535Z,90.60
2022-09-11T08:49:27.495Z,93.40
2022-09-11T08:50:27.473Z,90.40
2022-09-11T08:51:27.422Z,88.90
2022-09-11T08:52:27.396Z,87.40
2022-09-11T08:53:27.346Z,86.30
2022-09-11T08:54:27.311Z,83.00
2022-09-11T08:55:27.273Z,76.20
2022-09-11T08:56:27.250Z,82.00
2022-09-11T08:57:27.199Z,77.80
2022-09-11T08:58:27.162Z,74.40
2022-09-11T08:59:27.131Z,76.20
2022-09-11T09:00:27.089Z,76.10
2022-09-11T09:01:27.079Z,75.70
2022-09-11T09:02:27.052Z,78.50
2022-09-11T09:03:26.977Z,77.30
2022-09-11T09:04:26.939Z,72.10
2022-09-11T09:05:26.900Z,72.20
2022-09-11T09:06:26.865Z,76.20
2022-09-11T09:07:26.830Z,71.90
2022-09-11T09:08:26.801Z,72.20
2022-09-11T09:09:26.755Z,74.40
2022-09-11T09:10:26.720Z,78.00
2022-09-11T09:11:26.681Z,79.00
2022-09-11T09:12:26.642Z,79.20
2022-09-11T09:13:26.606Z,75.80
2022-09-11T09:14:26.751Z,76.60
2022-09-11T09:15:29.515Z,80.10
2022-09-11T09:16:26.500Z,76.20
2022-09-11T09:17:26.456Z,81.10
2022-09-11T09:18:26.421Z,77.70
2022-09-11T09:19:26.383Z,82.30
2022-09-11T09:20:26.364Z,82.80
2022-09-11T09:21:26.307Z,82.50
2022-09-11T09:22:26.279Z,85.40
2022-09-11T09:23:26.235Z,86.10
2022-09-11T09:24:26.198Z,82.10
2022-09-11T09:25:26.175Z,81.30
2022-09-11T09:26:26.124Z,77.80
2022-09-11T09:27:26.087Z,82.00
2022-09-11T09:28:26.054Z,82.90
2022-09-11T09:29:26.010Z,80.10
2022-09-11T09:30:25.978Z,74.20
2022-09-11T09:31:26.011Z,81.30
2022-09-11T09:32:25.907Z,72.90
2022-09-11T09:33:25.867Z,78.10
2022-09-11T09:34:25.829Z,74.10
2022-09-11T09:35:25.794Z,76.40
2022-09-11T09:36:25.760Z,70.00
2022-09-11T09:37:25.735Z,69.30
2022-09-11T09:38:27.121Z,65.20
2022-09-11T09:39:25.648Z,63.30
2022-09-11T09:40:25.618Z,64.00
2022-09-11T09:41:25.578Z,63.00
2022-09-11T09:42:25.545Z,60.30
2022-09-11T09:43:25.520Z,63.10
2022-09-11T09:44:25.486Z,59.40
2022-09-11T09:45:25.435Z,62.30
2022-09-11T09:46:25.404Z,66.60
2022-09-11T09:47:25.366Z,66.70
2022-09-11T09:48:25.332Z,63.80
2022-09-11T09:49:25.309Z,64.10
2022-09-11T09:50:25.262Z,65.20
2022-09-11T09:51:25.228Z,63.60
2022-09-11T09:52:25.199Z,61.80
2022-09-11T09:53:25.156Z,65.10
2022-09-11T09:54:25.136Z,63.90
2022-09-11T09:55:25.090Z,61.80
2022-09-11T09:56:25.054Z,62.50
2022-09-11T09:57:25.017Z,62.90
2022-09-11T09:58:24.985Z,59.40
2022-09-11T09:59:24.950Z,59.30
2022-09-11T10:00:24.928Z,59.80
2022-09-11T10:01:24.941Z,56.20
2022-09-11T10:02:24.863Z,59.50
2022-09-11T10:03:24.815Z,62.30
2022-09-11T10:04:24.780Z,61.90
2022-09-11T10:05:24.747Z,58.70
2022-09-11T10:06:24.712Z,63.40
2022-09-11T10:07:24.689Z,56.40
2022-09-11T10:08:24.646Z,61.90
2022-09-11T10:09:24.611Z,56.50
2022-09-11T10:10:24.576Z,61.40
2022-09-11T10:11:24.546Z,60.10
2022-09-11T10:12:24.527Z,60.40
2022-09-11T10:13:24.476Z,61.60
2022-09-11T10:14:49.944Z,61.70
2022-09-11T10:15:24.413Z,61.60
2022-09-11T10:16:24.376Z,61.80
2022-09-11T10:17:24.355Z,62.80
2022-09-11T10:18:24.310Z,60.10
2022-09-11T10:19:24.281Z,64.00
2022-09-11T10:20:24.245Z,60.50
2022-09-11T10:21:24.236Z,61.30
2022-09-11T10:22:24.188Z,65.30
2022-09-11T10:23:24.153Z,62.10
2022-09-11T10:24:24.107Z,96.80
2022-09-11T10:25:24.073Z,76.60
2022-09-11T10:26:24.038Z,63.00
2022-09-11T10:27:27.225Z,62.10
2022-09-11T10:28:23.982Z,56.00
2022-09-11T10:29:23.938Z,57.90
2022-09-11T10:30:23.899Z,68.10
2022-09-11T10:31:23.911Z,59.70
2022-09-11T10:32:23.832Z,58.60
2022-09-11T10:33:23.797Z,56.30
2022-09-11T10:34:23.778Z,56.40
2022-09-11T10:35:23.730Z,56.10
2022-09-11T10:36:23.693Z,55.90
2022-09-11T10:37:23.661Z,54.40
2022-09-11T10:38:23.630Z,55.40
2022-09-11T10:39:23.590Z,57.00
2022-09-11T10:40:23.566Z,57.90
2022-09-11T10:41:23.535Z,60.70
2022-09-11T10:42:23.483Z,59.00
2022-09-11T10:43:23.451Z,57.40
2022-09-11T10:44:23.416Z,59.60
2022-09-11T10:45:23.379Z,56.00
2022-09-11T10:46:23.520Z,58.40
2022-09-11T10:47:23.312Z,57.70
2022-09-11T10:48:23.277Z,57.00
2022-09-11T10:49:23.244Z,54.30
2022-09-11T10:50:23.207Z,50.50
2022-09-11T10:51:23.174Z,52.30
2022-09-11T10:52:23.152Z,52.70
2022-09-11T10:53:23.121Z,50.90
2022-09-11T10:54:23.071Z,52.60
2022-09-11T10:55:23.040Z,53.10
2022-09-11T10:56:22.999Z,51.80
2022-09-11T10:57:22.981Z,56.00
2022-09-11T10:58:22.933Z,55.70
2022-09-11T10:59:22.901Z,53.00
2022-09-11T11:00:22.863Z,53.50
2022-09-11T11:01:22.873Z,51.50
2022-09-11T11:02:22.874Z,51.30
2022-09-11T11:03:22.772Z,51.80
2022-09-11T11:04:22.725Z,51.20
2022-09-11T11:05:22.689Z,52.40
2022-09-11T11:06:22.653Z,52.20
2022-09-11T11:07:22.620Z,51.90
2022-09-11T11:08:22.585Z,52.10
2022-09-11T11:09:22.564Z,45.10
2022-09-11T11:10:22.516Z,43.80
2022-09-11T11:11:22.483Z,44.30
2022-09-11T11:12:22.449Z,41.40
2022-09-11T11:13:22.413Z,42.10
2022-09-11T11:14:22.379Z,42.40
2022-09-11T11:15:24.151Z,44.40
2022-09-11T11:16:22.309Z,43.40
2022-09-11T11:17:22.278Z,41.20
2022-09-11T11:18:22.243Z,40.60
2022-09-11T11:19:22.210Z,41.00
2022-09-11T11:20:22.189Z,41.60
2022-09-11T11:21:22.141Z,43.30
2022-09-11T11:22:22.107Z,41.90
2022-09-11T11:23:22.076Z,43.30
2022-09-11T11:24:22.041Z,45.20
2022-09-11T11:25:22.007Z,40.60
2022-09-11T11:26:21.991Z,41.90
2022-09-11T11:27:21.944Z,39.80
2022-09-11T11:28:21.908Z,42.30
2022-09-11T11:29:21.876Z,44.20
2022-09-11T11:30:21.869Z,42.70
2022-09-11T11:31:21.865Z,44.20
2022-09-11T11:32:21.777Z,39.90
2022-09-11T11:33:21.745Z,42.40
2022-09-11T11:34:21.711Z,45.10
2022-09-11T11:35:21.678Z,47.00
2022-09-11T11:36:21.647Z,42.20
2022-09-11T11:37:21.626Z,41.60
2022-09-11T11:38:21.581Z,42.00
2022-09-11T11:39:21.551Z,39.00
2022-09-11T11:40:21.517Z,40.30
2022-09-11T11:41:21.485Z,38.10
2022-09-11T11:42:21.454Z,38.50
2022-09-11T11:43:21.430Z,39.20
2022-09-11T11:44:21.390Z,38.70
2022-09-11T11:45:21.357Z,36.40
2022-09-11T11:46:21.324Z,35.90
2022-09-11T11:47:21.294Z,36.90
2022-09-11T11:48:21.270Z,38.00
2022-09-11T11:49:21.234Z,36.50
2022-09-11T11:50:21.203Z,38.90
2022-09-11T11:51:21.169Z,34.80
2022-09-11T11:52:21.136Z,44.40
2022-09-11T11:53:21.122Z,31.70
2022-09-11T11:54:21.073Z,32.80
2022-09-11T11:55:21.049Z,33.40
2022-09-11T11:56:21.014Z,32.90
2022-09-11T11:57:20.983Z,32.30
2022-09-11T11:58:20.967Z,35.30
2022-09-11T11:59:20.924Z,32.20
2022-09-11T12:00:20.898Z,34.10
2022-09-11T12:01:20.863Z,35.70
2022-09-11T12:02:20.835Z,34.70
2022-09-11T12:03:20.892Z,35.50
2022-09-11T12:04:20.773Z,34.40
2022-09-11T12:05:20.743Z,35.10
2022-09-11T12:06:20.710Z,33.00
2022-09-11T12:07:20.684Z,33.00
2022-09-11T12:08:20.664Z,34.70
2022-09-11T12:09:20.623Z,33.60
2022-09-11T12:10:20.590Z,33.90
2022-09-11T12:11:20.558Z,31.70
2022-09-11T12:12:20.529Z,34.10
2022-09-11T12:13:20.495Z,32.70
2022-09-11T12:14:20.475Z,31.80
2022-09-11T12:15:20.443Z,31.60
2022-09-11T12:16:20.467Z,33.40
2022-09-11T12:17:20.371Z,33.50
2022-09-11T12:18:20.342Z,34.10
2022-09-11T12:19:20.310Z,36.10
2022-09-11T12:20:20.281Z,35.10
2022-09-11T12:21:20.260Z,34.30
2022-09-11T12:22:20.217Z,33.70
2022-09-11T12:23:20.189Z,34.00
2022-09-11T12:24:20.156Z,33.20
2022-09-11T12:25:20.142Z,32.30
2022-09-11T12:26:20.100Z,30.00
2022-09-11T12:27:20.066Z,32.00
2022-09-11T12:28:20.037Z,30.90
2022-09-11T12:29:20.011Z,32.30
2022-09-11T12:30:19.974Z,31.20
2022-09-11T12:31:19.991Z,32.40
2022-09-11T12:32:19.915Z,32.60
2022-09-11T12:33:19.886Z,33.10
2022-09-11T12:34:19.855Z,30.20
2022-09-11T12:35:19.827Z,29.50
2022-09-11T12:36:19.799Z,28.80
2022-09-11T12:37:19.778Z,29.20
2022-09-11T12:38:19.734Z,30.90
2022-09-11T12:39:19.708Z,30.10
2022-09-11T12:40:19.676Z,28.40